sensor_id;sensor_type;location;lat;lon;timestamp;P1;durP1;ratioP1;P2;durP2;ratioP2
27219;SDS011;45274;52.266;10.790;2024-01-16T00:02:13;4.20;;;1.67;;
27219;SDS011;45274;52.266;10.790;2024-01-16T00:04:38;4.57;;;2.20;;
27219;SDS011;45274;52.266;10.790;2024-01-16T00:07:08;5.75;;;1.77;;
27219;SDS011;45274;52.266;10.790;2024-01-16T00:09:34;2.13;;;1.85;;
27219;SDS011;45274;52.266;10.790;2024-01-16T00:12:00;6.20;;;1.90;;
27219;SDS011;45274;52.266;10.790;2024-01-16T00:14:26;7.72;;;2.03;;
27219;SDS011;45274;52.266;10.790;2024-01-16T00:16:52;2.47;;;1.70;;
27219;SDS011;45274;52.266;10.790;2024-01-16T00:19:18;4.75;;;1.90;;
27219;SDS011;45274;52.266;10.790;2024-01-16T00:21:43;3.63;;;1.75;;
27219;SDS011;45274;52.266;10.790;2024-01-16T00:24:13;3.85;;;1.77;;
27219;SDS011;45274;52.266;10.790;2024-01-16T00:26:39;4.72;;;1.85;;
27219;SDS011;45274;52.266;10.790;2024-01-16T00:29:04;8.90;;;2.13;;
27219;SDS011;45274;52.266;10.790;2024-01-16T00:31:30;3.15;;;1.80;;
27219;SDS011;45274;52.266;10.790;2024-01-16T00:33:55;3.85;;;1.80;;
27219;SDS011;45274;52.266;10.790;2024-01-16T00:36:20;4.25;;;1.75;;
27219;SDS011;45274;52.266;10.790;2024-01-16T00:38:46;6.63;;;1.58;;
27219;SDS011;45274;52.266;10.790;2024-01-16T00:41:12;5.38;;;1.83;;
27219;SDS011;45274;52.266;10.790;2024-01-16T00:43:40;7.43;;;2.13;;
27219;SDS011;45274;52.266;10.790;2024-01-16T00:46:05;4.20;;;1.50;;
27219;SDS011;45274;52.266;10.790;2024-01-16T00:48:31;5.18;;;1.92;;
27219;SDS011;45274;52.266;10.790;2024-01-16T00:50:56;5.65;;;2.08;;
27219;SDS011;45274;52.266;10.790;2024-01-16T00:53:22;2.65;;;1.60;;
27219;SDS011;45274;52.266;10.790;2024-01-16T00:55:47;9.15;;;2.10;;
27219;SDS011;45274;52.266;10.790;2024-01-16T00:58:12;4.43;;;1.80;;
27219;SDS011;45274;52.266;10.790;2024-01-16T01:00:38;3.65;;;1.80;;
27219;SDS011;45274;52.266;10.790;2024-01-16T01:03:04;5.97;;;2.22;;
27219;SDS011;45274;52.266;10.790;2024-01-16T01:05:30;6.00;;;2.10;;
27219;SDS011;45274;52.266;10.790;2024-01-16T01:07:55;4.70;;;1.67;;
27219;SDS011;45274;52.266;10.790;2024-01-16T01:10:21;3.75;;;1.60;;
27219;SDS011;45274;52.266;10.790;2024-01-16T01:12:47;3.50;;;1.73;;
27219;SDS011;45274;52.266;10.790;2024-01-16T01:15:12;4.03;;;1.40;;
27219;SDS011;45274;52.266;10.790;2024-01-16T01:17:39;3.97;;;1.65;;
27219;SDS011;45274;52.266;10.790;2024-01-16T01:20:05;3.97;;;1.70;;
27219;SDS011;45274;52.266;10.790;2024-01-16T01:22:31;3.42;;;2.00;;
27219;SDS011;45274;52.266;10.790;2024-01-16T01:24:57;4.30;;;2.00;;
27219;SDS011;45274;52.266;10.790;2024-01-16T01:27:22;3.05;;;1.20;;
27219;SDS011;45274;52.266;10.790;2024-01-16T01:29:47;5.03;;;1.73;;
27219;SDS011;45274;52.266;10.790;2024-01-16T01:32:13;4.40;;;1.80;;
27219;SDS011;45274;52.266;10.790;2024-01-16T01:34:40;3.22;;;1.67;;
27219;SDS011;45274;52.266;10.790;2024-01-16T01:37:06;4.85;;;2.45;;
27219;SDS011;45274;52.266;10.790;2024-01-16T01:39:32;2.10;;;1.25;;
27219;SDS011;45274;52.266;10.790;2024-01-16T01:41:57;4.20;;;1.90;;
27219;SDS011;45274;52.266;10.790;2024-01-16T01:44:23;3.35;;;1.80;;
27219;SDS011;45274;52.266;10.790;2024-01-16T01:46:49;3.30;;;1.60;;
27219;SDS011;45274;52.266;10.790;2024-01-16T01:49:15;3.42;;;1.52;;
27219;SDS011;45274;52.266;10.790;2024-01-16T01:51:41;3.53;;;1.60;;
27219;SDS011;45274;52.266;10.790;2024-01-16T01:54:08;5.80;;;1.70;;
27219;SDS011;45274;52.266;10.790;2024-01-16T01:56:34;7.90;;;1.70;;
27219;SDS011;45274;52.266;10.790;2024-01-16T01:59:00;4.68;;;1.63;;
27219;SDS011;45274;52.266;10.790;2024-01-16T02:01:27;2.95;;;1.00;;
27219;SDS011;45274;52.266;10.790;2024-01-16T02:03:55;4.85;;;1.45;;
27219;SDS011;45274;52.266;10.790;2024-01-16T02:06:21;4.28;;;1.70;;
27219;SDS011;45274;52.266;10.790;2024-01-16T02:08:47;3.90;;;1.25;;
27219;SDS011;45274;52.266;10.790;2024-01-16T02:11:13;1.90;;;1.48;;
27219;SDS011;45274;52.266;10.790;2024-01-16T02:13:40;3.47;;;1.40;;
27219;SDS011;45274;52.266;10.790;2024-01-16T02:16:16;2.83;;;1.45;;
27219;SDS011;45274;52.266;10.790;2024-01-16T02:18:42;7.32;;;1.52;;
27219;SDS011;45274;52.266;10.790;2024-01-16T02:21:08;2.30;;;1.10;;
27219;SDS011;45274;52.266;10.790;2024-01-16T02:23:33;2.72;;;1.40;;
27219;SDS011;45274;52.266;10.790;2024-01-16T02:25:59;6.45;;;1.30;;
27219;SDS011;45274;52.266;10.790;2024-01-16T02:28:26;4.90;;;1.40;;
27219;SDS011;45274;52.266;10.790;2024-01-16T02:30:51;0.85;;;0.80;;
27219;SDS011;45274;52.266;10.790;2024-01-16T02:33:16;2.20;;;1.20;;
27219;SDS011;45274;52.266;10.790;2024-01-16T02:35:42;3.13;;;1.10;;
27219;SDS011;45274;52.266;10.790;2024-01-16T02:38:07;1.98;;;1.08;;
27219;SDS011;45274;52.266;10.790;2024-01-16T02:40:32;4.25;;;1.30;;
27219;SDS011;45274;52.266;10.790;2024-01-16T02:42:58;4.95;;;1.70;;
27219;SDS011;45274;52.266;10.790;2024-01-16T02:45:23;1.88;;;1.15;;
27219;SDS011;45274;52.266;10.790;2024-01-16T02:47:48;2.72;;;1.25;;
27219;SDS011;45274;52.266;10.790;2024-01-16T02:50:14;4.30;;;1.30;;
27219;SDS011;45274;52.266;10.790;2024-01-16T02:52:39;1.83;;;1.02;;
27219;SDS011;45274;52.266;10.790;2024-01-16T02:55:05;2.85;;;1.13;;
27219;SDS011;45274;52.266;10.790;2024-01-16T02:57:31;3.85;;;1.45;;
27219;SDS011;45274;52.266;10.790;2024-01-16T02:59:56;5.85;;;1.80;;
27219;SDS011;45274;52.266;10.790;2024-01-16T03:02:22;2.83;;;1.33;;
27219;SDS011;45274;52.266;10.790;2024-01-16T03:04:48;5.53;;;1.67;;
27219;SDS011;45274;52.266;10.790;2024-01-16T03:07:14;5.65;;;1.65;;
27219;SDS011;45274;52.266;10.790;2024-01-16T03:09:39;3.85;;;1.58;;
27219;SDS011;45274;52.266;10.790;2024-01-16T03:12:05;5.97;;;1.58;;
27219;SDS011;45274;52.266;10.790;2024-01-16T03:14:30;3.83;;;1.27;;
27219;SDS011;45274;52.266;10.790;2024-01-16T03:17:00;5.38;;;1.67;;
27219;SDS011;45274;52.266;10.790;2024-01-16T03:19:26;2.13;;;1.25;;
27219;SDS011;45274;52.266;10.790;2024-01-16T03:21:51;4.15;;;1.10;;
27219;SDS011;45274;52.266;10.790;2024-01-16T03:24:17;4.90;;;1.45;;
27219;SDS011;45274;52.266;10.790;2024-01-16T03:26:42;3.85;;;1.60;;
27219;SDS011;45274;52.266;10.790;2024-01-16T03:29:08;3.15;;;1.63;;
27219;SDS011;45274;52.266;10.790;2024-01-16T03:31:35;1.42;;;0.90;;
27219;SDS011;45274;52.266;10.790;2024-01-16T03:34:00;6.20;;;1.30;;
27219;SDS011;45274;52.266;10.790;2024-01-16T03:36:26;2.38;;;1.20;;
27219;SDS011;45274;52.266;10.790;2024-01-16T03:38:52;9.68;;;1.42;;
27219;SDS011;45274;52.266;10.790;2024-01-16T03:41:17;2.47;;;1.20;;
27219;SDS011;45274;52.266;10.790;2024-01-16T03:43:43;2.22;;;1.00;;
27219;SDS011;45274;52.266;10.790;2024-01-16T03:46:12;2.50;;;1.10;;
27219;SDS011;45274;52.266;10.790;2024-01-16T03:48:38;3.78;;;1.13;;
27219;SDS011;45274;52.266;10.790;2024-01-16T03:51:04;3.55;;;1.58;;
27219;SDS011;45274;52.266;10.790;2024-01-16T03:53:30;3.03;;;1.30;;
27219;SDS011;45274;52.266;10.790;2024-01-16T03:55:56;1.92;;;1.30;;
27219;SDS011;45274;52.266;10.790;2024-01-16T03:58:22;2.47;;;0.77;;
27219;SDS011;45274;52.266;10.790;2024-01-16T04:00:48;2.92;;;1.13;;
27219;SDS011;45274;52.266;10.790;2024-01-16T04:03:15;3.78;;;1.45;;
27219;SDS011;45274;52.266;10.790;2024-01-16T04:05:44;5.57;;;1.73;;
27219;SDS011;45274;52.266;10.790;2024-01-16T04:08:09;3.45;;;1.20;;
27219;SDS011;45274;52.266;10.790;2024-01-16T04:10:35;3.30;;;0.95;;
27219;SDS011;45274;52.266;10.790;2024-01-16T04:13:01;4.32;;;1.42;;
27219;SDS011;45274;52.266;10.790;2024-01-16T04:15:27;2.60;;;1.50;;
27219;SDS011;45274;52.266;10.790;2024-01-16T04:17:53;6.53;;;1.45;;
27219;SDS011;45274;52.266;10.790;2024-01-16T04:20:18;2.17;;;1.17;;
27219;SDS011;45274;52.266;10.790;2024-01-16T04:22:45;5.97;;;1.42;;
27219;SDS011;45274;52.266;10.790;2024-01-16T04:25:10;7.10;;;1.02;;
27219;SDS011;45274;52.266;10.790;2024-01-16T04:27:36;3.85;;;1.58;;
27219;SDS011;45274;52.266;10.790;2024-01-16T04:30:01;2.47;;;1.40;;
27219;SDS011;45274;52.266;10.790;2024-01-16T04:32:27;3.88;;;1.60;;
27219;SDS011;45274;52.266;10.790;2024-01-16T04:34:52;5.22;;;1.40;;
27219;SDS011;45274;52.266;10.790;2024-01-16T04:37:18;5.13;;;1.70;;
27219;SDS011;45274;52.266;10.790;2024-01-16T04:39:43;2.42;;;1.10;;
27219;SDS011;45274;52.266;10.790;2024-01-16T04:42:08;6.13;;;1.40;;
27219;SDS011;45274;52.266;10.790;2024-01-16T04:44:34;5.93;;;1.98;;
27219;SDS011;45274;52.266;10.790;2024-01-16T04:46:59;3.08;;;1.70;;
27219;SDS011;45274;52.266;10.790;2024-01-16T04:49:25;5.00;;;1.67;;
27219;SDS011;45274;52.266;10.790;2024-01-16T04:51:50;3.75;;;2.00;;
27219;SDS011;45274;52.266;10.790;2024-01-16T04:54:15;4.47;;;2.08;;
27219;SDS011;45274;52.266;10.790;2024-01-16T04:56:41;5.07;;;1.90;;
27219;SDS011;45274;52.266;10.790;2024-01-16T04:59:06;5.25;;;1.90;;
27219;SDS011;45274;52.266;10.790;2024-01-16T05:01:32;5.97;;;1.30;;
27219;SDS011;45274;52.266;10.790;2024-01-16T05:03:57;5.60;;;1.80;;
27219;SDS011;45274;52.266;10.790;2024-01-16T05:06:22;4.40;;;1.20;;
27219;SDS011;45274;52.266;10.790;2024-01-16T05:08:48;3.83;;;1.75;;
27219;SDS011;45274;52.266;10.790;2024-01-16T05:11:13;7.13;;;2.17;;
27219;SDS011;45274;52.266;10.790;2024-01-16T05:13:39;5.25;;;1.90;;
27219;SDS011;45274;52.266;10.790;2024-01-16T05:16:04;7.05;;;1.90;;
27219;SDS011;45274;52.266;10.790;2024-01-16T05:18:30;4.45;;;1.55;;
27219;SDS011;45274;52.266;10.790;2024-01-16T05:20:57;2.72;;;1.30;;
27219;SDS011;45274;52.266;10.790;2024-01-16T05:23:23;7.30;;;2.03;;
27219;SDS011;45274;52.266;10.790;2024-01-16T05:25:48;6.47;;;1.88;;
27219;SDS011;45274;52.266;10.790;2024-01-16T05:28:14;1.95;;;1.23;;
27219;SDS011;45274;52.266;10.790;2024-01-16T05:30:40;8.38;;;1.55;;
27219;SDS011;45274;52.266;10.790;2024-01-16T05:33:05;2.80;;;1.20;;
27219;SDS011;45274;52.266;10.790;2024-01-16T05:35:32;7.13;;;1.60;;
27219;SDS011;45274;52.266;10.790;2024-01-16T05:37:57;7.05;;;1.50;;
27219;SDS011;45274;52.266;10.790;2024-01-16T05:40:24;6.00;;;1.45;;
27219;SDS011;45274;52.266;10.790;2024-01-16T05:42:50;4.68;;;1.33;;
27219;SDS011;45274;52.266;10.790;2024-01-16T05:45:18;6.30;;;1.73;;
27219;SDS011;45274;52.266;10.790;2024-01-16T05:47:44;3.55;;;1.60;;
27219;SDS011;45274;52.266;10.790;2024-01-16T05:50:09;8.00;;;1.65;;
27219;SDS011;45274;52.266;10.790;2024-01-16T05:52:35;4.78;;;1.25;;
27219;SDS011;45274;52.266;10.790;2024-01-16T05:55:01;4.25;;;1.17;;
27219;SDS011;45274;52.266;10.790;2024-01-16T05:57:28;5.35;;;1.25;;
27219;SDS011;45274;52.266;10.790;2024-01-16T05:59:56;9.35;;;2.08;;
27219;SDS011;45274;52.266;10.790;2024-01-16T06:02:22;6.25;;;1.90;;
27219;SDS011;45274;52.266;10.790;2024-01-16T06:04:47;10.38;;;2.35;;
27219;SDS011;45274;52.266;10.790;2024-01-16T06:07:12;7.43;;;2.00;;
27219;SDS011;45274;52.266;10.790;2024-01-16T06:09:38;8.30;;;2.00;;
27219;SDS011;45274;52.266;10.790;2024-01-16T06:12:07;7.47;;;2.08;;
27219;SDS011;45274;52.266;10.790;2024-01-16T06:14:33;11.95;;;2.78;;
27219;SDS011;45274;52.266;10.790;2024-01-16T06:16:59;10.80;;;4.18;;
27219;SDS011;45274;52.266;10.790;2024-01-16T06:19:25;8.68;;;1.75;;
27219;SDS011;45274;52.266;10.790;2024-01-16T06:21:50;10.65;;;2.85;;
27219;SDS011;45274;52.266;10.790;2024-01-16T06:24:15;4.80;;;1.77;;
27219;SDS011;45274;52.266;10.790;2024-01-16T06:26:41;4.47;;;1.75;;
27219;SDS011;45274;52.266;10.790;2024-01-16T06:29:07;9.80;;;2.45;;
27219;SDS011;45274;52.266;10.790;2024-01-16T06:31:33;6.75;;;1.55;;
27219;SDS011;45274;52.266;10.790;2024-01-16T06:33:58;6.63;;;1.95;;
27219;SDS011;45274;52.266;10.790;2024-01-16T06:36:23;12.20;;;2.67;;
27219;SDS011;45274;52.266;10.790;2024-01-16T06:38:49;6.82;;;1.80;;
27219;SDS011;45274;52.266;10.790;2024-01-16T06:41:14;5.15;;;2.17;;
27219;SDS011;45274;52.266;10.790;2024-01-16T06:43:39;5.00;;;1.70;;
27219;SDS011;45274;52.266;10.790;2024-01-16T06:46:05;8.02;;;2.15;;
27219;SDS011;45274;52.266;10.790;2024-01-16T06:48:30;6.70;;;2.05;;
27219;SDS011;45274;52.266;10.790;2024-01-16T06:50:56;4.78;;;1.50;;
27219;SDS011;45274;52.266;10.790;2024-01-16T06:53:21;6.95;;;2.00;;
27219;SDS011;45274;52.266;10.790;2024-01-16T06:55:47;9.15;;;2.33;;
27219;SDS011;45274;52.266;10.790;2024-01-16T06:58:13;5.53;;;1.95;;
27219;SDS011;45274;52.266;10.790;2024-01-16T07:00:39;7.07;;;1.75;;
27219;SDS011;45274;52.266;10.790;2024-01-16T07:03:06;9.13;;;2.50;;
27219;SDS011;45274;52.266;10.790;2024-01-16T07:05:32;6.88;;;2.40;;
27219;SDS011;45274;52.266;10.790;2024-01-16T07:07:57;6.25;;;2.28;;
27219;SDS011;45274;52.266;10.790;2024-01-16T07:10:23;8.82;;;2.03;;
27219;SDS011;45274;52.266;10.790;2024-01-16T07:12:49;7.07;;;2.15;;
27219;SDS011;45274;52.266;10.790;2024-01-16T07:15:16;9.60;;;2.20;;
27219;SDS011;45274;52.266;10.790;2024-01-16T07:17:42;14.05;;;2.75;;
27219;SDS011;45274;52.266;10.790;2024-01-16T07:20:07;6.03;;;2.03;;
27219;SDS011;45274;52.266;10.790;2024-01-16T07:22:33;7.25;;;2.10;;
27219;SDS011;45274;52.266;10.790;2024-01-16T07:25:01;6.45;;;2.00;;
27219;SDS011;45274;52.266;10.790;2024-01-16T07:27:27;9.57;;;2.30;;
27219;SDS011;45274;52.266;10.790;2024-01-16T07:29:52;8.10;;;2.22;;
27219;SDS011;45274;52.266;10.790;2024-01-16T07:32:18;5.53;;;1.95;;
27219;SDS011;45274;52.266;10.790;2024-01-16T07:34:43;10.52;;;2.47;;
27219;SDS011;45274;52.266;10.790;2024-01-16T07:37:09;7.10;;;1.92;;
27219;SDS011;45274;52.266;10.790;2024-01-16T07:39:34;15.73;;;2.40;;
27219;SDS011;45274;52.266;10.790;2024-01-16T07:42:00;8.05;;;2.30;;
27219;SDS011;45274;52.266;10.790;2024-01-16T07:44:25;8.98;;;2.58;;
27219;SDS011;45274;52.266;10.790;2024-01-16T07:46:52;9.77;;;2.30;;
27219;SDS011;45274;52.266;10.790;2024-01-16T07:49:18;6.22;;;1.67;;
27219;SDS011;45274;52.266;10.790;2024-01-16T07:51:44;6.07;;;2.20;;
27219;SDS011;45274;52.266;10.790;2024-01-16T07:54:10;8.25;;;2.53;;
27219;SDS011;45274;52.266;10.790;2024-01-16T07:56:35;7.47;;;2.10;;
27219;SDS011;45274;52.266;10.790;2024-01-16T07:59:02;9.02;;;4.05;;
27219;SDS011;45274;52.266;10.790;2024-01-16T08:01:28;15.15;;;6.07;;
27219;SDS011;45274;52.266;10.790;2024-01-16T08:03:57;8.15;;;2.40;;
27219;SDS011;45274;52.266;10.790;2024-01-16T08:06:22;6.22;;;2.22;;
27219;SDS011;45274;52.266;10.790;2024-01-16T08:08:48;5.22;;;2.10;;
27219;SDS011;45274;52.266;10.790;2024-01-16T08:11:14;5.20;;;2.38;;
27219;SDS011;45274;52.266;10.790;2024-01-16T08:13:40;4.82;;;1.98;;
27219;SDS011;45274;52.266;10.790;2024-01-16T08:16:05;6.90;;;2.38;;
27219;SDS011;45274;52.266;10.790;2024-01-16T08:18:31;7.60;;;2.38;;
27219;SDS011;45274;52.266;10.790;2024-01-16T08:20:57;5.75;;;2.20;;
27219;SDS011;45274;52.266;10.790;2024-01-16T08:23:22;9.85;;;2.17;;
27219;SDS011;45274;52.266;10.790;2024-01-16T08:25:48;8.43;;;3.28;;
27219;SDS011;45274;52.266;10.790;2024-01-16T08:28:14;11.02;;;2.40;;
27219;SDS011;45274;52.266;10.790;2024-01-16T08:30:40;7.18;;;2.80;;
27219;SDS011;45274;52.266;10.790;2024-01-16T08:33:06;7.20;;;2.67;;
27219;SDS011;45274;52.266;10.790;2024-01-16T08:35:32;6.15;;;2.80;;
27219;SDS011;45274;52.266;10.790;2024-01-16T08:37:58;8.05;;;2.70;;
27219;SDS011;45274;52.266;10.790;2024-01-16T08:40:23;10.55;;;4.40;;
27219;SDS011;45274;52.266;10.790;2024-01-16T08:42:49;4.85;;;2.65;;
27219;SDS011;45274;52.266;10.790;2024-01-16T08:45:19;8.82;;;3.20;;
27219;SDS011;45274;52.266;10.790;2024-01-16T08:47:45;10.95;;;2.90;;
27219;SDS011;45274;52.266;10.790;2024-01-16T08:50:10;8.35;;;2.97;;
27219;SDS011;45274;52.266;10.790;2024-01-16T08:52:36;6.90;;;2.67;;
27219;SDS011;45274;52.266;10.790;2024-01-16T08:55:01;6.13;;;2.72;;
27219;SDS011;45274;52.266;10.790;2024-01-16T08:57:28;8.90;;;2.70;;
27219;SDS011;45274;52.266;10.790;2024-01-16T08:59:54;10.18;;;2.50;;
27219;SDS011;45274;52.266;10.790;2024-01-16T09:02:20;10.10;;;3.28;;
27219;SDS011;45274;52.266;10.790;2024-01-16T09:04:45;9.30;;;3.95;;
27219;SDS011;45274;52.266;10.790;2024-01-16T09:07:12;8.30;;;3.72;;
27219;SDS011;45274;52.266;10.790;2024-01-16T09:09:40;14.60;;;6.25;;
27219;SDS011;45274;52.266;10.790;2024-01-16T09:12:07;8.23;;;3.03;;
27219;SDS011;45274;52.266;10.790;2024-01-16T09:14:33;10.43;;;3.30;;
27219;SDS011;45274;52.266;10.790;2024-01-16T09:16:58;8.50;;;3.20;;
27219;SDS011;45274;52.266;10.790;2024-01-16T09:19:24;12.50;;;2.70;;
27219;SDS011;45274;52.266;10.790;2024-01-16T09:21:49;8.10;;;2.75;;
27219;SDS011;45274;52.266;10.790;2024-01-16T09:24:15;8.32;;;3.40;;
27219;SDS011;45274;52.266;10.790;2024-01-16T09:26:40;13.88;;;3.08;;
27219;SDS011;45274;52.266;10.790;2024-01-16T09:29:06;9.02;;;2.55;;
27219;SDS011;45274;52.266;10.790;2024-01-16T09:31:33;7.40;;;2.80;;
27219;SDS011;45274;52.266;10.790;2024-01-16T09:33:59;4.95;;;2.33;;
27219;SDS011;45274;52.266;10.790;2024-01-16T09:36:24;4.38;;;2.60;;
27219;SDS011;45274;52.266;10.790;2024-01-16T09:38:50;5.22;;;2.45;;
27219;SDS011;45274;52.266;10.790;2024-01-16T09:41:15;8.07;;;2.10;;
27219;SDS011;45274;52.266;10.790;2024-01-16T09:43:41;6.88;;;2.60;;
27219;SDS011;45274;52.266;10.790;2024-01-16T09:46:08;9.65;;;2.35;;
27219;SDS011;45274;52.266;10.790;2024-01-16T09:48:35;8.52;;;2.65;;
27219;SDS011;45274;52.266;10.790;2024-01-16T09:51:01;7.75;;;2.25;;
27219;SDS011;45274;52.266;10.790;2024-01-16T09:53:26;6.97;;;2.47;;
27219;SDS011;45274;52.266;10.790;2024-01-16T09:55:53;9.48;;;2.15;;
27219;SDS011;45274;52.266;10.790;2024-01-16T09:58:22;7.38;;;2.42;;
27219;SDS011;45274;52.266;10.790;2024-01-16T10:00:48;7.28;;;2.58;;
27219;SDS011;45274;52.266;10.790;2024-01-16T10:03:15;7.32;;;2.40;;
27219;SDS011;45274;52.266;10.790;2024-01-16T10:05:44;6.90;;;2.47;;
27219;SDS011;45274;52.266;10.790;2024-01-16T10:08:10;9.55;;;2.83;;
27219;SDS011;45274;52.266;10.790;2024-01-16T10:10:36;10.48;;;2.83;;
27219;SDS011;45274;52.266;10.790;2024-01-16T10:13:02;12.85;;;2.90;;
27219;SDS011;45274;52.266;10.790;2024-01-16T10:15:31;8.00;;;2.35;;
27219;SDS011;45274;52.266;10.790;2024-01-16T10:17:57;9.90;;;3.10;;
27219;SDS011;45274;52.266;10.790;2024-01-16T10:20:36;6.03;;;2.60;;
27219;SDS011;45274;52.266;10.790;2024-01-16T10:23:02;5.32;;;2.45;;
27219;SDS011;45274;52.266;10.790;2024-01-16T10:25:28;6.90;;;2.72;;
27219;SDS011;45274;52.266;10.790;2024-01-16T10:28:04;9.00;;;2.70;;
27219;SDS011;45274;52.266;10.790;2024-01-16T10:30:32;10.32;;;2.85;;
27219;SDS011;45274;52.266;10.790;2024-01-16T10:33:11;6.10;;;2.70;;
27219;SDS011;45274;52.266;10.790;2024-01-16T10:35:38;4.40;;;2.25;;
27219;SDS011;45274;52.266;10.790;2024-01-16T10:38:04;11.05;;;2.88;;
27219;SDS011;45274;52.266;10.790;2024-01-16T10:40:29;8.88;;;2.50;;
27219;SDS011;45274;52.266;10.790;2024-01-16T10:43:00;12.70;;;3.28;;
27219;SDS011;45274;52.266;10.790;2024-01-16T10:45:27;10.73;;;2.90;;
27219;SDS011;45274;52.266;10.790;2024-01-16T10:48:00;8.70;;;2.92;;
27219;SDS011;45274;52.266;10.790;2024-01-16T10:50:30;9.40;;;4.10;;
27219;SDS011;45274;52.266;10.790;2024-01-16T10:52:57;12.80;;;3.28;;
27219;SDS011;45274;52.266;10.790;2024-01-16T10:55:26;8.80;;;2.85;;
27219;SDS011;45274;52.266;10.790;2024-01-16T10:57:54;5.45;;;2.92;;
27219;SDS011;45274;52.266;10.790;2024-01-16T11:00:22;6.60;;;2.80;;
27219;SDS011;45274;52.266;10.790;2024-01-16T11:02:54;13.15;;;3.67;;
27219;SDS011;45274;52.266;10.790;2024-01-16T11:05:37;9.75;;;3.33;;
27219;SDS011;45274;52.266;10.790;2024-01-16T11:08:05;5.30;;;2.63;;
27219;SDS011;45274;52.266;10.790;2024-01-16T11:10:32;6.43;;;2.72;;
27219;SDS011;45274;52.266;10.790;2024-01-16T11:13:00;6.88;;;2.67;;
27219;SDS011;45274;52.266;10.790;2024-01-16T11:15:27;6.57;;;2.97;;
27219;SDS011;45274;52.266;10.790;2024-01-16T11:17:53;8.10;;;2.67;;
27219;SDS011;45274;52.266;10.790;2024-01-16T11:20:20;12.00;;;3.53;;
27219;SDS011;45274;52.266;10.790;2024-01-16T11:22:46;10.23;;;3.22;;
27219;SDS011;45274;52.266;10.790;2024-01-16T11:25:14;5.35;;;3.05;;
27219;SDS011;45274;52.266;10.790;2024-01-16T11:27:41;10.43;;;3.50;;
27219;SDS011;45274;52.266;10.790;2024-01-16T11:30:08;13.85;;;3.20;;
27219;SDS011;45274;52.266;10.790;2024-01-16T11:32:38;11.02;;;3.08;;
27219;SDS011;45274;52.266;10.790;2024-01-16T11:35:07;6.15;;;2.88;;
27219;SDS011;45274;52.266;10.790;2024-01-16T11:37:34;11.57;;;3.10;;
27219;SDS011;45274;52.266;10.790;2024-01-16T11:42:46;6.07;;;3.00;;
27219;SDS011;45274;52.266;10.790;2024-01-16T11:50:48;10.45;;;3.33;;
27219;SDS011;45274;52.266;10.790;2024-01-16T11:53:32;4.82;;;2.80;;
27219;SDS011;45274;52.266;10.790;2024-01-16T11:58:48;9.32;;;2.80;;
27219;SDS011;45274;52.266;10.790;2024-01-16T12:01:14;9.52;;;3.80;;
27219;SDS011;45274;52.266;10.790;2024-01-16T12:03:42;19.20;;;6.88;;
27219;SDS011;45274;52.266;10.790;2024-01-16T12:06:08;11.50;;;4.70;;
27219;SDS011;45274;52.266;10.790;2024-01-16T12:08:34;15.80;;;5.38;;
27219;SDS011;45274;52.266;10.790;2024-01-16T12:11:01;9.63;;;3.63;;
27219;SDS011;45274;52.266;10.790;2024-01-16T12:13:27;13.13;;;3.47;;
27219;SDS011;45274;52.266;10.790;2024-01-16T12:16:02;4.63;;;2.03;;
27219;SDS011;45274;52.266;10.790;2024-01-16T12:18:29;6.47;;;2.53;;
27219;SDS011;45274;52.266;10.790;2024-01-16T12:20:54;8.38;;;2.85;;
27219;SDS011;45274;52.266;10.790;2024-01-16T12:23:20;5.13;;;2.80;;
27219;SDS011;45274;52.266;10.790;2024-01-16T12:25:47;7.97;;;2.92;;
27219;SDS011;45274;52.266;10.790;2024-01-16T12:28:16;6.57;;;2.50;;
27219;SDS011;45274;52.266;10.790;2024-01-16T12:30:49;6.28;;;2.35;;
27219;SDS011;45274;52.266;10.790;2024-01-16T12:33:16;6.72;;;2.00;;
27219;SDS011;45274;52.266;10.790;2024-01-16T12:35:45;5.15;;;2.55;;
27219;SDS011;45274;52.266;10.790;2024-01-16T12:38:11;6.53;;;3.05;;
27219;SDS011;45274;52.266;10.790;2024-01-16T12:40:43;7.32;;;2.22;;
27219;SDS011;45274;52.266;10.790;2024-01-16T12:43:19;7.57;;;2.70;;
27219;SDS011;45274;52.266;10.790;2024-01-16T12:45:45;6.22;;;2.65;;
27219;SDS011;45274;52.266;10.790;2024-01-16T12:48:11;9.88;;;2.72;;
27219;SDS011;45274;52.266;10.790;2024-01-16T12:50:37;5.70;;;2.53;;
27219;SDS011;45274;52.266;10.790;2024-01-16T12:53:03;5.75;;;2.65;;
27219;SDS011;45274;52.266;10.790;2024-01-16T12:55:39;6.50;;;3.03;;
27219;SDS011;45274;52.266;10.790;2024-01-16T13:00:44;5.13;;;2.72;;
27219;SDS011;45274;52.266;10.790;2024-01-16T13:03:29;7.60;;;3.15;;
27219;SDS011;45274;52.266;10.790;2024-01-16T13:05:56;8.45;;;3.42;;
27219;SDS011;45274;52.266;10.790;2024-01-16T13:08:23;7.07;;;3.40;;
27219;SDS011;45274;52.266;10.790;2024-01-16T13:11:05;9.07;;;3.30;;
27219;SDS011;45274;52.266;10.790;2024-01-16T13:13:35;9.43;;;3.80;;
27219;SDS011;45274;52.266;10.790;2024-01-16T13:16:05;8.35;;;3.55;;
27219;SDS011;45274;52.266;10.790;2024-01-16T13:18:33;6.38;;;3.10;;
27219;SDS011;45274;52.266;10.790;2024-01-16T13:20:59;7.15;;;3.20;;
27219;SDS011;45274;52.266;10.790;2024-01-16T13:23:26;6.68;;;3.10;;
27219;SDS011;45274;52.266;10.790;2024-01-16T13:25:53;6.85;;;3.35;;
27219;SDS011;45274;52.266;10.790;2024-01-16T13:28:25;4.90;;;3.22;;
27219;SDS011;45274;52.266;10.790;2024-01-16T13:30:52;10.13;;;3.83;;
27219;SDS011;45274;52.266;10.790;2024-01-16T13:33:17;8.63;;;3.95;;
27219;SDS011;45274;52.266;10.790;2024-01-16T13:35:46;9.30;;;3.60;;
27219;SDS011;45274;52.266;10.790;2024-01-16T13:38:12;7.80;;;3.58;;
27219;SDS011;45274;52.266;10.790;2024-01-16T13:40:41;9.38;;;4.20;;
27219;SDS011;45274;52.266;10.790;2024-01-16T13:43:06;8.73;;;4.32;;
27219;SDS011;45274;52.266;10.790;2024-01-16T13:45:32;7.68;;;4.68;;
27219;SDS011;45274;52.266;10.790;2024-01-16T13:47:59;8.18;;;4.47;;
27219;SDS011;45274;52.266;10.790;2024-01-16T13:50:26;7.82;;;4.50;;
27219;SDS011;45274;52.266;10.790;2024-01-16T13:52:51;9.00;;;4.35;;
27219;SDS011;45274;52.266;10.790;2024-01-16T13:55:18;11.38;;;4.38;;
27219;SDS011;45274;52.266;10.790;2024-01-16T13:57:44;8.55;;;4.18;;
27219;SDS011;45274;52.266;10.790;2024-01-16T14:00:10;12.73;;;5.10;;
27219;SDS011;45274;52.266;10.790;2024-01-16T14:02:49;8.25;;;4.78;;
27219;SDS011;45274;52.266;10.790;2024-01-16T14:05:16;12.65;;;5.30;;
27219;SDS011;45274;52.266;10.790;2024-01-16T14:07:43;10.60;;;5.40;;
27219;SDS011;45274;52.266;10.790;2024-01-16T14:10:11;13.02;;;6.68;;
27219;SDS011;45274;52.266;10.790;2024-01-16T14:12:44;11.88;;;6.47;;
27219;SDS011;45274;52.266;10.790;2024-01-16T14:15:11;11.35;;;6.38;;
27219;SDS011;45274;52.266;10.790;2024-01-16T14:20:16;15.57;;;7.82;;
27219;SDS011;45274;52.266;10.790;2024-01-16T14:22:43;10.85;;;7.65;;
27219;SDS011;45274;52.266;10.790;2024-01-16T14:25:09;14.25;;;7.60;;
27219;SDS011;45274;52.266;10.790;2024-01-16T14:27:39;14.50;;;8.65;;
27219;SDS011;45274;52.266;10.790;2024-01-16T14:30:14;14.68;;;7.65;;
27219;SDS011;45274;52.266;10.790;2024-01-16T14:32:42;14.27;;;7.40;;
27219;SDS011;45274;52.266;10.790;2024-01-16T14:35:09;13.15;;;7.75;;
27219;SDS011;45274;52.266;10.790;2024-01-16T14:37:36;14.80;;;8.57;;
27219;SDS011;45274;52.266;10.790;2024-01-16T14:40:02;13.52;;;8.60;;
27219;SDS011;45274;52.266;10.790;2024-01-16T14:42:31;14.00;;;8.43;;
27219;SDS011;45274;52.266;10.790;2024-01-16T14:44:59;14.50;;;8.35;;
27219;SDS011;45274;52.266;10.790;2024-01-16T14:47:24;15.82;;;8.05;;